Terminal Aerodrome Forecast
Issued by NWS

Home | Current Version | Previous Version | Text Only | Print | Product List | Glossary On
Versions: 1 2 3 4 5 6 7 8 9 10 11 12 13
914
FTUS46 KSEW 091120
TAFPAE
TAF
KPAE 091120Z 0912/1012 02005KT P6SM SCT250
      TEMPO 0912/0916 2SM BR
     FM092000 10007KT P6SM BKN250=

USA.gov is the U.S. government's official web portal to all federal, state and local government web resources and services.